createdAt,value
2023-03-13T00:04:41.862Z,99455.20
2023-03-13T00:09:51.416Z,99457.00
2023-03-13T00:15:01.057Z,99450.00
2023-03-13T00:20:17.810Z,99458.80
2023-03-13T00:25:27.876Z,99436.00
2023-03-13T00:30:37.643Z,99434.20
2023-03-13T00:35:47.222Z,99426.80
2023-03-13T00:41:05.262Z,99409.60
2023-03-13T00:46:17.629Z,99401.60
2023-03-13T00:51:30.030Z,99397.80
2023-03-13T00:56:39.781Z,99397.60
2023-03-13T01:01:49.603Z,99378.80
2023-03-13T01:06:59.324Z,99381.80
2023-03-13T01:12:10.382Z,99380.60
2023-03-13T01:17:21.394Z,99365.60
2023-03-13T01:22:31.249Z,99345.00
2023-03-13T01:27:41.045Z,99322.40
2023-03-13T01:32:50.671Z,99324.20
2023-03-13T01:38:00.312Z,99308.80
2023-03-13T01:43:27.063Z,99306.60
2023-03-13T01:48:48.487Z,99314.00
2023-03-13T01:54:06.667Z,99331.00
2023-03-13T01:59:20.883Z,99328.80
2023-03-13T02:04:37.379Z,99324.00
2023-03-13T02:09:54.098Z,99319.00
2023-03-13T02:15:10.289Z,99312.40
2023-03-13T02:20:23.155Z,99300.40
2023-03-13T02:25:46.194Z,99289.80
2023-03-13T02:30:58.963Z,99276.20
2023-03-13T02:36:10.866Z,99266.00
2023-03-13T02:41:23.052Z,99262.80
2023-03-13T02:46:32.772Z,99264.40
2023-03-13T02:51:46.388Z,99257.80
2023-03-13T02:57:00.280Z,99258.60
2023-03-13T03:02:10.306Z,99255.80
2023-03-13T03:07:19.992Z,99268.80
2023-03-13T03:12:29.640Z,99267.00
2023-03-13T03:17:39.239Z,99283.00
2023-03-13T03:22:48.793Z,99281.00
2023-03-13T03:27:58.448Z,99281.60
2023-03-13T03:33:09.430Z,99292.60
2023-03-13T03:38:19.279Z,99287.00
2023-03-13T03:43:29.067Z,99288.80
2023-03-13T03:48:39.132Z,99283.40
2023-03-13T03:53:48.953Z,99272.00
2023-03-13T03:58:58.646Z,99257.60
2023-03-13T04:04:08.469Z,99268.00
2023-03-13T04:09:18.160Z,99267.00
2023-03-13T04:14:28.159Z,99266.00
2023-03-13T04:19:37.815Z,99263.60
2023-03-13T04:24:47.469Z,99243.00
2023-03-13T04:29:57.698Z,99239.80
2023-03-13T04:35:08.202Z,99237.40
2023-03-13T04:40:19.384Z,99232.60
2023-03-13T04:45:29.397Z,99225.20
2023-03-13T04:50:39.164Z,99217.40
2023-03-13T04:55:49.229Z,99208.80
2023-03-13T05:01:00.037Z,99210.40
2023-03-13T05:06:10.870Z,99209.20
2023-03-13T05:11:20.409Z,99196.00
2023-03-13T05:16:30.115Z,99202.40
2023-03-13T05:21:39.874Z,99193.00
2023-03-13T05:26:49.834Z,99188.60
2023-03-13T05:31:59.857Z,99192.80
2023-03-13T05:37:09.573Z,99176.20
2023-03-13T05:42:20.093Z,99171.40
2023-03-13T05:47:30.829Z,99160.40
2023-03-13T05:52:40.568Z,99162.00
2023-03-13T05:57:52.100Z,99158.60
2023-03-13T06:03:01.779Z,99158.20
2023-03-13T06:08:16.461Z,99152.20
2023-03-13T06:13:29.367Z,99144.80
2023-03-13T06:18:38.976Z,99149.40
2023-03-13T06:23:48.746Z,99146.40
2023-03-13T06:28:58.482Z,99133.20
2023-03-13T06:34:08.113Z,99121.40
2023-03-13T06:39:18.329Z,99115.40
2023-03-13T06:44:28.694Z,99121.00
2023-03-13T06:49:38.946Z,99124.00
2023-03-13T06:54:48.424Z,99119.20
2023-03-13T06:59:58.312Z,99111.40
2023-03-13T07:05:09.706Z,99106.20
2023-03-13T07:10:20.121Z,99104.00
2023-03-13T07:15:30.873Z,99091.80
2023-03-13T07:20:41.153Z,99090.20
2023-03-13T07:25:59.276Z,99090.60
2023-03-13T07:31:18.783Z,99089.00
2023-03-13T07:36:30.224Z,99087.20
2023-03-13T07:41:40.447Z,99081.40
2023-03-13T07:46:50.542Z,99085.20
2023-03-13T07:52:00.406Z,99088.00
2023-03-13T07:57:10.324Z,99072.60
2023-03-13T08:02:20.256Z,99062.40
2023-03-13T08:07:30.307Z,99064.20
2023-03-13T08:12:39.871Z,99060.80
2023-03-13T08:17:49.508Z,99057.80
2023-03-13T08:23:01.076Z,99047.80
2023-03-13T08:28:11.679Z,99036.60
2023-03-13T08:33:21.522Z,99033.40
2023-03-13T08:38:31.193Z,99025.00
2023-03-13T08:43:41.039Z,99020.60
2023-03-13T08:48:55.352Z,99016.20
2023-03-13T08:54:06.983Z,99007.60
2023-03-13T08:59:16.705Z,98996.00
2023-03-13T09:04:26.399Z,99001.80
2023-03-13T09:09:36.753Z,98995.60
2023-03-13T09:14:49.662Z,98995.40
2023-03-13T09:20:01.069Z,98991.80
2023-03-13T09:25:13.078Z,98986.80
2023-03-13T09:30:23.560Z,98978.40
2023-03-13T09:35:33.704Z,98966.40
2023-03-13T09:41:04.979Z,98954.80
2023-03-13T09:46:23.103Z,98943.00
2023-03-13T09:51:38.520Z,98943.20
2023-03-13T09:56:55.416Z,98944.00
2023-03-13T10:02:18.358Z,98935.60
2023-03-13T10:07:28.335Z,98929.40
2023-03-13T10:12:46.381Z,98923.40
2023-03-13T10:17:56.731Z,98913.80
2023-03-13T10:23:14.264Z,98916.60
2023-03-13T10:28:24.176Z,98914.60
2023-03-13T10:33:36.514Z,98905.40
2023-03-13T10:38:55.403Z,98897.20
2023-03-13T10:44:08.625Z,98892.80
2023-03-13T10:49:23.906Z,98882.80
2023-03-13T10:54:37.612Z,98871.00
2023-03-13T10:59:50.909Z,98856.80
2023-03-13T11:05:01.736Z,98846.00
2023-03-13T11:10:24.714Z,98838.40
2023-03-13T11:15:43.516Z,98835.20
2023-03-13T11:20:54.023Z,98831.00
2023-03-13T11:26:18.116Z,98820.60
2023-03-13T11:31:34.654Z,98821.40
2023-03-13T11:36:54.636Z,98803.80
2023-03-13T11:42:22.325Z,98793.80
2023-03-13T11:47:56.302Z,98786.00
2023-03-13T11:53:33.966Z,98771.40
2023-03-13T11:59:15.196Z,98758.20
2023-03-13T12:04:33.455Z,98754.80
2023-03-13T12:09:54.799Z,98740.80
2023-03-13T12:15:18.988Z,98720.60
2023-03-13T12:20:36.210Z,98712.40
2023-03-13T12:25:56.412Z,98695.60
2023-03-13T12:31:20.261Z,98692.00
2023-03-13T12:36:40.284Z,98681.60
2023-03-13T12:42:09.519Z,98665.00
2023-03-13T12:47:30.288Z,98652.80
2023-03-13T12:53:02.747Z,98647.00
2023-03-13T12:58:45.313Z,98631.20
2023-03-13T13:04:03.685Z,98612.00
2023-03-13T13:09:24.953Z,98601.20
2023-03-13T13:15:17.841Z,98591.80
2023-03-13T13:20:50.367Z,98593.80
2023-03-13T13:26:50.019Z,98568.20
2023-03-13T13:32:04.522Z,98550.60
2023-03-13T13:37:31.343Z,98532.20
2023-03-13T13:42:56.404Z,98542.60
2023-03-13T13:48:38.165Z,98505.00
2023-03-13T13:53:54.551Z,98503.40
2023-03-13T13:59:18.547Z,98505.00
2023-03-13T14:04:36.918Z,98497.20
2023-03-13T14:10:01.445Z,98494.40
2023-03-13T14:15:20.661Z,98500.00
2023-03-13T14:20:37.244Z,98478.60
2023-03-13T14:25:50.519Z,98469.20
2023-03-13T14:31:01.372Z,98465.60
2023-03-13T14:36:13.361Z,98451.60
2023-03-13T14:41:34.427Z,98447.80
2023-03-13T14:46:45.896Z,98435.20
2023-03-13T14:52:05.956Z,98431.00
2023-03-13T14:57:27.004Z,98432.00
2023-03-13T15:02:37.844Z,98420.80
2023-03-13T15:07:55.988Z,98425.20
2023-03-13T15:13:25.160Z,98422.00
2023-03-13T15:18:37.804Z,98413.20
2023-03-13T15:23:50.979Z,98411.20
2023-03-13T15:29:00.980Z,98404.20
2023-03-13T15:34:16.303Z,98401.60
2023-03-13T15:39:27.560Z,98407.60
2023-03-13T15:44:38.312Z,98407.40
2023-03-13T15:49:47.994Z,98397.40
2023-03-13T15:54:58.032Z,98381.80
2023-03-13T16:00:13.929Z,98384.00
2023-03-13T16:05:23.960Z,98385.00
2023-03-13T16:10:34.892Z,98381.80
2023-03-13T16:15:45.062Z,98393.60
2023-03-13T16:20:55.545Z,98404.40
2023-03-13T16:26:07.256Z,98402.00
2023-03-13T16:31:23.188Z,98403.80
2023-03-13T16:36:35.414Z,98411.60
2023-03-13T16:41:45.588Z,98417.40
2023-03-13T16:47:05.096Z,98427.80
2023-03-13T16:52:19.692Z,98424.80
2023-03-13T16:57:30.760Z,98435.40
2023-03-13T17:02:40.751Z,98441.00
2023-03-13T17:07:53.396Z,98443.00
2023-03-13T17:13:03.790Z,98442.00
2023-03-13T17:18:15.292Z,98443.60
2023-03-13T17:23:25.047Z,98448.20
2023-03-13T17:28:34.942Z,98445.80
2023-03-13T17:33:44.848Z,98443.80
2023-03-13T17:38:57.595Z,98441.60
2023-03-13T17:44:08.688Z,98444.60
2023-03-13T17:49:20.771Z,98442.80
2023-03-13T17:54:30.612Z,98454.20
2023-03-13T17:59:40.677Z,98460.00
2023-03-13T18:04:50.361Z,98460.20
2023-03-13T18:10:00.449Z,98455.20
2023-03-13T18:15:12.340Z,98461.60
2023-03-13T18:20:25.581Z,98453.60
2023-03-13T18:25:35.447Z,98466.60
2023-03-13T18:30:45.310Z,98464.40
2023-03-13T18:35:55.119Z,98462.20
2023-03-13T18:41:05.310Z,98459.40
2023-03-13T18:46:21.836Z,98459.40
2023-03-13T18:51:32.176Z,98451.40
2023-03-13T18:56:42.349Z,98450.80
2023-03-13T19:01:52.472Z,98445.20
2023-03-13T19:07:02.290Z,98434.60
2023-03-13T19:12:13.469Z,98424.20
2023-03-13T19:17:29.326Z,98422.20
2023-03-13T19:22:39.500Z,98401.60
2023-03-13T19:27:50.496Z,98400.60
2023-03-13T19:33:00.112Z,98394.00
2023-03-13T19:38:13.557Z,98403.00
2023-03-13T19:43:23.161Z,98387.80
2023-03-13T19:48:32.967Z,98396.20
2023-03-13T19:53:43.035Z,98389.60
2023-03-13T19:58:54.976Z,98391.80
2023-03-13T20:04:04.953Z,98396.00
2023-03-13T20:09:17.950Z,98418.40
2023-03-13T20:14:28.574Z,98422.00
2023-03-13T20:19:38.487Z,98411.60
2023-03-13T20:24:48.247Z,98413.00
2023-03-13T20:29:58.017Z,98404.60
2023-03-13T20:35:13.250Z,98399.40
2023-03-13T20:40:23.755Z,98392.60
2023-03-13T20:45:34.919Z,98403.40
2023-03-13T20:50:44.890Z,98387.80
2023-03-13T20:55:55.709Z,98404.20
2023-03-13T21:01:07.352Z,98386.80
2023-03-13T21:06:19.833Z,98387.80
2023-03-13T21:11:29.925Z,98369.00
2023-03-13T21:16:39.923Z,98359.80
2023-03-13T21:21:50.633Z,98355.80
2023-03-13T21:27:00.624Z,98356.20
2023-03-13T21:32:10.734Z,98354.00
2023-03-13T21:37:20.882Z,98352.40
2023-03-13T21:42:31.246Z,98330.60
2023-03-13T21:47:40.856Z,98308.40
2023-03-13T21:52:50.662Z,98314.40
2023-03-13T21:58:00.286Z,98314.00
2023-03-13T22:03:10.137Z,98331.40
2023-03-13T22:08:19.771Z,98339.20
2023-03-13T22:13:29.319Z,98340.20
2023-03-13T22:18:39.307Z,98333.20
2023-03-13T22:23:49.314Z,98320.80
2023-03-13T22:28:59.398Z,98314.60
2023-03-13T22:34:09.082Z,98314.20
2023-03-13T22:39:18.959Z,98321.20
2023-03-13T22:44:28.569Z,98324.40
2023-03-13T22:49:38.102Z,98306.80
2023-03-13T22:54:47.864Z,98286.20
2023-03-13T22:59:59.403Z,98262.00
2023-03-13T23:05:10.525Z,98254.20
2023-03-13T23:10:20.577Z,98224.00
2023-03-13T23:15:42.898Z,98206.40
2023-03-13T23:21:00.331Z,98209.40
2023-03-13T23:26:14.176Z,98197.80
2023-03-13T23:31:25.442Z,98205.80
2023-03-13T23:36:35.019Z,98202.60
2023-03-13T23:41:44.549Z,98206.20
2023-03-13T23:46:54.355Z,98208.00
2023-03-13T23:52:03.952Z,98211.00
2023-03-13T23:57:13.541Z,98210.20
